createdAt,value
2023-08-20T00:01:26.035Z,9.23
2023-08-20T00:03:54.973Z,10.55
2023-08-20T00:06:24.229Z,11.88
2023-08-20T00:08:52.434Z,8.85
2023-08-20T00:11:21.484Z,9.05
2023-08-20T00:13:49.223Z,10.77
2023-08-20T00:16:17.308Z,10.38
2023-08-20T00:18:45.513Z,9.73
2023-08-20T00:21:13.695Z,13.43
2023-08-20T00:23:41.953Z,12.13
2023-08-20T00:26:10.253Z,12.25
2023-08-20T00:28:39.832Z,9.98
2023-08-20T00:31:07.555Z,11.50
2023-08-20T00:33:35.297Z,10.13
2023-08-20T00:36:03.570Z,11.07
2023-08-20T00:38:31.462Z,9.75
2023-08-20T00:40:59.173Z,11.15
2023-08-20T00:43:26.894Z,10.80
2023-08-20T00:45:55.967Z,9.77
2023-08-20T00:48:23.770Z,9.75
2023-08-20T00:50:51.557Z,8.05
2023-08-20T00:53:20.015Z,8.38
2023-08-20T00:55:47.957Z,13.73
2023-08-20T00:58:16.625Z,6.25
2023-08-20T01:00:44.356Z,7.57
2023-08-20T01:03:13.423Z,6.07
2023-08-20T01:05:48.974Z,8.90
2023-08-20T01:08:29.433Z,8.23
2023-08-20T01:11:03.106Z,8.65
2023-08-20T01:13:30.775Z,8.02
2023-08-20T01:15:58.476Z,7.50
2023-08-20T01:18:27.803Z,14.32
2023-08-20T01:21:00.424Z,7.80
2023-08-20T01:23:50.282Z,6.65
2023-08-20T01:26:30.685Z,6.63
2023-08-20T01:28:59.969Z,5.53
2023-08-20T01:31:29.018Z,4.68
2023-08-20T01:33:58.639Z,6.85
2023-08-20T01:36:26.772Z,4.05
2023-08-20T01:38:54.410Z,5.45
2023-08-20T01:41:22.100Z,9.25
2023-08-20T01:43:49.825Z,5.53
2023-08-20T01:46:18.882Z,6.75
2023-08-20T01:48:46.636Z,7.38
2023-08-20T01:51:14.513Z,5.65
2023-08-20T01:53:42.181Z,6.05
2023-08-20T01:56:13.372Z,6.68
2023-08-20T01:58:41.489Z,9.52
2023-08-20T02:01:09.261Z,8.57
2023-08-20T02:03:39.038Z,5.80
2023-08-20T02:06:06.916Z,8.63
2023-08-20T02:08:34.658Z,6.32
2023-08-20T02:11:03.661Z,6.10
2023-08-20T02:13:31.460Z,7.15
2023-08-20T02:16:03.048Z,5.45
2023-08-20T02:18:30.925Z,4.47
2023-08-20T02:21:00.252Z,7.97
2023-08-20T02:23:28.031Z,5.85
2023-08-20T02:25:55.811Z,9.77
2023-08-20T02:28:23.910Z,5.38
2023-08-20T02:30:51.604Z,5.55
2023-08-20T02:33:19.388Z,7.43
2023-08-20T02:35:47.114Z,6.32
2023-08-20T02:38:16.253Z,5.82
2023-08-20T02:40:44.087Z,6.75
2023-08-20T02:43:11.806Z,9.68
2023-08-20T02:45:44.164Z,13.20
2023-08-20T02:48:12.152Z,13.60
2023-08-20T02:50:39.944Z,14.90
2023-08-20T02:53:07.794Z,17.40
2023-08-20T02:55:37.132Z,19.27
2023-08-20T02:58:05.157Z,25.02
2023-08-20T03:00:32.948Z,38.17
2023-08-20T03:03:00.672Z,15.05
2023-08-20T03:05:28.659Z,20.33
2023-08-20T03:07:56.372Z,12.75
2023-08-20T03:10:24.064Z,14.70
2023-08-20T03:12:53.116Z,8.35
2023-08-20T03:15:21.052Z,12.93
2023-08-20T03:17:48.834Z,7.75
2023-08-20T03:20:16.745Z,15.63
2023-08-20T03:22:44.417Z,9.32
2023-08-20T03:25:12.160Z,15.15
2023-08-20T03:27:39.884Z,18.67
2023-08-20T03:30:09.922Z,9.00
2023-08-20T03:32:37.598Z,16.23
2023-08-20T03:35:06.067Z,51.55
2023-08-20T03:37:34.133Z,12.95
2023-08-20T03:40:02.022Z,22.77
2023-08-20T03:42:29.730Z,13.77
2023-08-20T03:44:57.404Z,17.67
2023-08-20T03:47:26.560Z,19.00
2023-08-20T03:49:54.431Z,35.90
2023-08-20T03:52:22.120Z,19.00
2023-08-20T03:54:51.278Z,11.77
2023-08-20T03:57:18.985Z,19.38
2023-08-20T03:59:47.407Z,20.67
2023-08-20T04:02:15.624Z,18.27
2023-08-20T04:04:44.662Z,11.65
2023-08-20T04:07:12.308Z,20.40
2023-08-20T04:09:40.726Z,13.48
2023-08-20T04:12:09.033Z,18.20
2023-08-20T04:14:36.774Z,19.38
2023-08-20T04:17:04.498Z,13.38
2023-08-20T04:19:32.183Z,14.82
2023-08-20T04:22:01.207Z,14.43
2023-08-20T04:24:29.004Z,13.32
2023-08-20T04:26:56.776Z,11.20
2023-08-20T04:29:24.458Z,10.50
2023-08-20T04:31:52.136Z,12.07
2023-08-20T04:34:19.808Z,13.10
2023-08-20T04:36:47.592Z,13.63
2023-08-20T04:39:16.570Z,10.90
2023-08-20T04:41:44.261Z,13.82
2023-08-20T04:44:12.074Z,10.50
2023-08-20T04:46:39.770Z,16.83
2023-08-20T04:49:07.642Z,10.95
2023-08-20T04:51:35.314Z,13.77
2023-08-20T04:54:02.977Z,20.08
2023-08-20T04:56:32.036Z,23.75
2023-08-20T04:58:59.708Z,31.67
2023-08-20T05:01:27.460Z,21.02
2023-08-20T05:03:55.168Z,13.63
2023-08-20T05:06:22.877Z,27.48
2023-08-20T05:08:50.516Z,10.27
2023-08-20T05:11:18.189Z,14.23
2023-08-20T05:13:47.740Z,12.40
2023-08-20T05:16:15.441Z,31.92
2023-08-20T05:18:43.133Z,24.80
2023-08-20T05:21:14.432Z,12.70
2023-08-20T05:23:42.305Z,14.88
2023-08-20T05:26:10.235Z,11.73
2023-08-20T05:28:37.900Z,12.50
2023-08-20T05:31:06.951Z,11.77
2023-08-20T05:33:34.872Z,10.73
2023-08-20T05:36:02.567Z,9.52
2023-08-20T05:38:30.248Z,7.57
2023-08-20T05:40:57.902Z,7.50
2023-08-20T05:43:25.576Z,5.75
2023-08-20T05:45:53.273Z,4.28
2023-08-20T05:48:22.311Z,4.93
2023-08-20T05:50:49.989Z,5.10
2023-08-20T05:53:17.636Z,5.63
2023-08-20T05:55:45.306Z,4.90
2023-08-20T05:58:13.154Z,5.53
2023-08-20T06:00:41.029Z,8.98
2023-08-20T06:03:08.987Z,6.38
2023-08-20T06:05:38.139Z,7.60
2023-08-20T06:08:06.605Z,8.32
2023-08-20T06:10:34.273Z,8.10
2023-08-20T06:13:01.975Z,10.70
2023-08-20T06:15:29.679Z,10.18
2023-08-20T06:17:57.388Z,9.18
2023-08-20T06:20:25.092Z,12.63
2023-08-20T06:22:54.109Z,8.80
2023-08-20T06:25:21.847Z,9.93
2023-08-20T06:27:49.542Z,10.35
2023-08-20T06:30:17.281Z,10.13
2023-08-20T06:32:46.595Z,12.23
2023-08-20T06:35:14.284Z,11.45
2023-08-20T06:37:42.198Z,10.93
2023-08-20T06:40:12.241Z,12.45
2023-08-20T06:42:40.947Z,13.35
2023-08-20T06:45:10.342Z,9.93
2023-08-20T06:47:38.459Z,9.43
2023-08-20T06:50:08.021Z,7.55
2023-08-20T06:52:35.731Z,9.23
2023-08-20T06:55:03.535Z,7.07
2023-08-20T06:57:32.787Z,11.50
2023-08-20T07:00:00.634Z,11.68
2023-08-20T07:02:28.376Z,11.48
2023-08-20T07:04:56.099Z,8.98
2023-08-20T07:07:24.283Z,11.38
2023-08-20T07:09:51.947Z,7.55
2023-08-20T07:12:19.621Z,8.38
2023-08-20T07:14:48.610Z,7.13
2023-08-20T07:17:16.267Z,8.55
2023-08-20T07:19:43.980Z,9.48
2023-08-20T07:22:11.643Z,8.73
2023-08-20T07:24:39.366Z,8.27
2023-08-20T07:27:12.182Z,8.20
2023-08-20T07:29:39.915Z,11.05
2023-08-20T07:32:09.104Z,9.52
2023-08-20T07:34:36.757Z,8.25
2023-08-20T07:37:06.050Z,10.50
2023-08-20T07:39:33.743Z,10.35
2023-08-20T07:42:01.467Z,7.20
2023-08-20T07:44:29.483Z,7.55
2023-08-20T07:46:57.186Z,5.28
2023-08-20T07:49:26.287Z,7.55
2023-08-20T07:51:55.532Z,4.72
2023-08-20T07:54:23.274Z,6.85
2023-08-20T07:56:50.926Z,4.82
2023-08-20T07:59:18.570Z,4.90
2023-08-20T08:01:46.343Z,5.00
2023-08-20T08:04:14.032Z,6.97
2023-08-20T08:06:43.098Z,5.28
2023-08-20T08:09:20.218Z,5.63
2023-08-20T08:11:47.884Z,4.85
2023-08-20T08:14:15.671Z,5.75
2023-08-20T08:16:43.368Z,4.38
2023-08-20T08:19:11.073Z,6.03
2023-08-20T08:21:38.846Z,4.03
2023-08-20T08:24:08.191Z,4.43
2023-08-20T08:26:36.664Z,5.38
2023-08-20T08:29:04.808Z,3.60
2023-08-20T08:31:32.660Z,4.50
2023-08-20T08:34:00.425Z,4.40
2023-08-20T08:36:28.066Z,4.45
2023-08-20T08:38:56.981Z,4.43
2023-08-20T08:41:28.115Z,5.25
2023-08-20T08:43:57.339Z,5.97
2023-08-20T08:46:26.386Z,5.70
2023-08-20T08:48:54.745Z,4.60
2023-08-20T08:51:22.444Z,6.25
2023-08-20T08:53:50.151Z,4.60
2023-08-20T08:56:17.787Z,5.43
2023-08-20T08:58:46.999Z,7.53
2023-08-20T09:01:15.588Z,5.82
2023-08-20T09:03:43.740Z,5.88
2023-08-20T09:06:12.122Z,6.50
2023-08-20T09:08:40.234Z,6.65
2023-08-20T09:11:07.971Z,5.40
2023-08-20T09:13:37.434Z,6.93
2023-08-20T09:16:07.784Z,6.95
2023-08-20T09:18:40.326Z,6.63
2023-08-20T09:21:09.504Z,7.40
2023-08-20T09:23:37.387Z,7.75
2023-08-20T09:26:06.269Z,7.90
2023-08-20T09:28:43.187Z,7.18
2023-08-20T09:31:12.316Z,5.60
2023-08-20T09:33:51.694Z,5.28
2023-08-20T09:36:20.377Z,6.30
2023-08-20T09:38:50.605Z,6.13
2023-08-20T09:41:19.735Z,6.82
2023-08-20T09:43:50.725Z,8.75
2023-08-20T09:46:22.496Z,6.57
2023-08-20T09:48:52.788Z,7.97
2023-08-20T09:51:23.885Z,7.53
2023-08-20T09:54:00.938Z,5.82
2023-08-20T09:56:30.471Z,7.93
2023-08-20T09:58:59.699Z,6.22
2023-08-20T10:01:29.573Z,6.47
2023-08-20T10:03:58.238Z,7.65
2023-08-20T10:06:26.830Z,7.15
2023-08-20T10:08:55.910Z,6.53
2023-08-20T10:11:23.771Z,8.32
2023-08-20T10:13:51.904Z,8.13
2023-08-20T10:16:22.057Z,5.57
2023-08-20T10:18:51.585Z,8.52
2023-08-20T10:21:19.286Z,7.80
2023-08-20T10:23:51.112Z,7.88
2023-08-20T10:26:19.970Z,7.20
2023-08-20T10:28:47.636Z,6.25
2023-08-20T10:31:18.332Z,8.23
2023-08-20T10:33:56.142Z,10.90
2023-08-20T10:36:29.001Z,7.13
2023-08-20T10:38:58.022Z,8.18
2023-08-20T10:41:29.679Z,8.80
2023-08-20T10:43:59.998Z,9.07
2023-08-20T10:46:31.166Z,7.68
2023-08-20T10:49:01.234Z,5.85
2023-08-20T10:51:30.187Z,8.23
2023-08-20T10:54:08.884Z,6.18
2023-08-20T10:56:41.894Z,6.63
2023-08-20T10:59:10.891Z,6.57
2023-08-20T11:01:39.489Z,8.55
2023-08-20T11:04:09.368Z,10.77
2023-08-20T11:06:37.097Z,8.82
2023-08-20T11:09:06.735Z,6.30
2023-08-20T11:11:34.781Z,7.97
2023-08-20T11:14:08.823Z,7.32
2023-08-20T11:16:37.338Z,7.10
2023-08-20T11:19:09.565Z,8.70
2023-08-20T11:21:40.567Z,9.43
2023-08-20T11:24:08.978Z,8.10
2023-08-20T11:26:37.770Z,6.03
2023-08-20T11:29:07.778Z,5.65
2023-08-20T11:31:35.502Z,8.18
2023-08-20T11:34:04.058Z,8.02
2023-08-20T11:36:32.316Z,7.03
2023-08-20T11:39:01.518Z,4.57
2023-08-20T11:41:29.511Z,8.00
2023-08-20T11:43:57.348Z,7.80
2023-08-20T11:46:26.189Z,7.45
2023-08-20T11:49:05.392Z,6.90
2023-08-20T11:51:38.855Z,7.95
2023-08-20T11:54:09.903Z,8.52
2023-08-20T11:56:39.702Z,5.55
2023-08-20T11:59:07.454Z,5.82
2023-08-20T12:01:35.268Z,4.40
2023-08-20T12:04:04.050Z,6.40
2023-08-20T12:06:32.524Z,6.82
2023-08-20T12:09:00.489Z,7.28
2023-08-20T12:11:30.375Z,6.80
2023-08-20T12:13:58.743Z,4.22
2023-08-20T12:16:26.962Z,5.88
2023-08-20T12:18:55.034Z,6.03
2023-08-20T12:21:22.731Z,6.28
2023-08-20T12:23:50.710Z,8.75
2023-08-20T12:26:19.217Z,5.15
2023-08-20T12:28:48.286Z,8.23
2023-08-20T12:31:16.712Z,4.75
2023-08-20T12:33:44.445Z,5.45
2023-08-20T12:36:12.119Z,4.60
2023-08-20T12:38:39.919Z,9.13
2023-08-20T12:41:07.670Z,5.47
2023-08-20T12:43:35.432Z,7.80
2023-08-20T12:46:04.626Z,5.15
2023-08-20T12:48:32.414Z,5.78
2023-08-20T12:51:00.383Z,5.00
2023-08-20T12:53:28.170Z,6.38
2023-08-20T12:55:55.931Z,6.88
2023-08-20T12:58:25.089Z,6.47
2023-08-20T13:00:52.786Z,4.50
2023-08-20T13:03:22.471Z,6.30
2023-08-20T13:05:50.702Z,5.88
2023-08-20T13:08:18.962Z,8.38
2023-08-20T13:10:52.481Z,7.43
2023-08-20T13:13:22.921Z,4.90
2023-08-20T13:15:51.346Z,6.60
2023-08-20T13:18:25.741Z,7.95
2023-08-20T13:20:54.622Z,5.60
2023-08-20T13:23:22.511Z,3.90
2023-08-20T13:25:50.174Z,7.65
2023-08-20T13:28:18.972Z,7.50
2023-08-20T13:30:46.800Z,6.32
2023-08-20T13:33:14.844Z,5.28
2023-08-20T13:35:44.068Z,7.22
2023-08-20T13:38:11.958Z,7.35
2023-08-20T13:40:39.678Z,7.30
2023-08-20T13:43:07.400Z,5.88
2023-08-20T13:45:35.091Z,5.38
2023-08-20T13:48:02.871Z,7.90
2023-08-20T13:50:31.026Z,6.80
2023-08-20T13:53:01.660Z,5.72
2023-08-20T13:55:32.149Z,7.57
2023-08-20T13:57:59.886Z,11.27
2023-08-20T14:00:27.694Z,5.57
2023-08-20T14:02:55.514Z,6.45
2023-08-20T14:05:23.274Z,5.22
2023-08-20T14:07:50.938Z,5.63
2023-08-20T14:10:19.959Z,7.38
2023-08-20T14:12:47.643Z,7.60
2023-08-20T14:15:15.844Z,5.80
2023-08-20T14:17:43.553Z,7.00
2023-08-20T14:20:12.619Z,5.88
2023-08-20T14:22:40.589Z,6.40
2023-08-20T14:25:09.249Z,7.18
2023-08-20T14:27:38.400Z,5.28
2023-08-20T14:30:08.979Z,6.97
2023-08-20T14:32:40.053Z,4.55
2023-08-20T14:35:09.261Z,6.72
2023-08-20T14:37:36.903Z,5.97
2023-08-20T14:40:07.640Z,5.85
2023-08-20T14:42:35.894Z,5.30
2023-08-20T14:45:06.402Z,7.25
2023-08-20T14:47:34.145Z,5.78
2023-08-20T14:50:01.906Z,5.75
2023-08-20T14:52:29.611Z,6.13
2023-08-20T14:54:57.293Z,3.88
2023-08-20T14:57:26.330Z,4.53
2023-08-20T14:59:59.437Z,4.65
2023-08-20T15:02:28.641Z,5.70
2023-08-20T15:04:56.374Z,4.68
2023-08-20T15:07:24.845Z,7.20
2023-08-20T15:09:52.637Z,3.60
2023-08-20T15:12:20.450Z,8.82
2023-08-20T15:14:48.095Z,4.32
2023-08-20T15:17:15.741Z,5.75
2023-08-20T15:19:45.075Z,4.72
2023-08-20T15:22:13.181Z,3.75
2023-08-20T15:24:40.797Z,7.65
2023-08-20T15:27:08.888Z,5.68
2023-08-20T15:29:39.092Z,6.65
2023-08-20T15:32:07.186Z,5.32
2023-08-20T15:34:34.851Z,6.63
2023-08-20T15:37:04.875Z,4.93
2023-08-20T15:39:34.969Z,3.85
2023-08-20T15:42:02.901Z,4.13
2023-08-20T15:44:30.620Z,7.35
2023-08-20T15:46:58.359Z,5.28
2023-08-20T15:49:28.257Z,3.75
2023-08-20T15:51:56.024Z,4.20
2023-08-20T15:54:26.626Z,4.38
2023-08-20T15:56:54.679Z,3.47
2023-08-20T15:59:22.613Z,6.63
2023-08-20T16:01:50.660Z,3.00
2023-08-20T16:04:18.405Z,3.90
2023-08-20T16:06:46.174Z,5.40
2023-08-20T16:09:13.926Z,4.95
2023-08-20T16:11:42.992Z,2.55
2023-08-20T16:14:11.357Z,4.13
2023-08-20T16:16:39.633Z,5.97
2023-08-20T16:19:07.395Z,5.45
2023-08-20T16:21:35.429Z,3.28
2023-08-20T16:24:05.272Z,4.40
2023-08-20T16:26:34.832Z,4.13
2023-08-20T16:29:04.524Z,5.78
2023-08-20T16:31:32.415Z,7.10
2023-08-20T16:34:00.078Z,4.30
2023-08-20T16:36:27.760Z,3.97
2023-08-20T16:38:55.705Z,3.17
2023-08-20T16:41:23.404Z,5.18
2023-08-20T16:43:51.138Z,5.07
2023-08-20T16:46:20.175Z,5.55
2023-08-20T16:48:47.857Z,2.65
2023-08-20T16:51:15.564Z,4.20
2023-08-20T16:53:43.274Z,3.97
2023-08-20T16:56:10.976Z,3.80
2023-08-20T16:58:38.679Z,5.70
2023-08-20T17:01:06.896Z,5.45
2023-08-20T17:03:35.933Z,4.60
2023-08-20T17:06:05.334Z,3.95
2023-08-20T17:08:33.224Z,4.88
2023-08-20T17:11:07.874Z,5.57
2023-08-20T17:13:36.831Z,3.42
2023-08-20T17:16:05.636Z,5.75
2023-08-20T17:18:33.892Z,5.07
2023-08-20T17:21:03.636Z,4.95
2023-08-20T17:23:33.415Z,4.40
2023-08-20T17:26:01.188Z,9.15
2023-08-20T17:28:29.160Z,3.58
2023-08-20T17:30:57.076Z,4.03
2023-08-20T17:33:25.187Z,4.47
2023-08-20T17:35:52.878Z,4.78
2023-08-20T17:38:23.084Z,4.10
2023-08-20T17:40:50.773Z,7.70
2023-08-20T17:43:18.638Z,4.30
2023-08-20T17:45:46.395Z,4.20
2023-08-20T17:48:16.100Z,3.97
2023-08-20T17:50:44.082Z,5.55
2023-08-20T17:53:11.791Z,5.40
2023-08-20T17:55:40.858Z,4.60
2023-08-20T17:58:08.975Z,6.43
2023-08-20T18:00:36.659Z,4.50
2023-08-20T18:03:05.148Z,3.95
2023-08-20T18:05:33.338Z,5.03
2023-08-20T18:08:02.177Z,5.60
2023-08-20T18:10:29.962Z,3.58
2023-08-20T18:12:59.513Z,3.92
2023-08-20T18:15:28.071Z,8.45
2023-08-20T18:17:55.929Z,4.43
2023-08-20T18:20:24.074Z,4.25
2023-08-20T18:22:51.715Z,3.10
2023-08-20T18:25:19.463Z,3.17
2023-08-20T18:27:47.229Z,4.32
2023-08-20T18:30:17.477Z,4.28
2023-08-20T18:32:45.114Z,3.95
2023-08-20T18:35:13.162Z,4.20
2023-08-20T18:37:40.909Z,8.45
2023-08-20T18:40:11.552Z,7.80
2023-08-20T18:42:39.964Z,6.60
2023-08-20T18:45:09.313Z,5.20
2023-08-20T18:47:38.468Z,6.13
2023-08-20T18:50:07.189Z,5.80
2023-08-20T18:52:35.127Z,3.75
2023-08-20T18:55:03.145Z,7.28
2023-08-20T18:57:30.795Z,6.20
2023-08-20T19:00:00.327Z,5.10
2023-08-20T19:02:28.121Z,4.97
2023-08-20T19:04:57.455Z,3.63
2023-08-20T19:07:26.497Z,4.85
2023-08-20T19:09:56.398Z,6.60
2023-08-20T19:12:24.051Z,6.47
2023-08-20T19:14:51.914Z,5.45
2023-08-20T19:17:19.560Z,6.75
2023-08-20T19:19:47.231Z,5.97
2023-08-20T19:22:17.164Z,5.00
2023-08-20T19:24:44.827Z,5.43
2023-08-20T19:27:12.897Z,6.03
2023-08-20T19:29:40.581Z,7.40
2023-08-20T19:32:08.416Z,6.40
2023-08-20T19:34:36.096Z,5.97
2023-08-20T19:37:04.680Z,6.25
2023-08-20T19:39:33.757Z,6.05
2023-08-20T19:42:02.542Z,6.22
2023-08-20T19:44:30.252Z,8.10
2023-08-20T19:46:57.980Z,5.82
2023-08-20T19:49:25.653Z,3.85
2023-08-20T19:51:53.342Z,5.70
2023-08-20T19:54:22.457Z,5.75
2023-08-20T19:56:51.800Z,5.57
2023-08-20T19:59:19.910Z,4.95
2023-08-20T20:01:48.690Z,7.30
2023-08-20T20:04:17.093Z,4.53
2023-08-20T20:06:45.250Z,5.85
2023-08-20T20:09:13.499Z,5.15
2023-08-20T20:11:41.170Z,5.82
2023-08-20T20:14:10.257Z,3.92
2023-08-20T20:16:38.219Z,5.03
2023-08-20T20:19:05.921Z,6.97
2023-08-20T20:21:33.601Z,3.53
2023-08-20T20:24:01.336Z,7.03
2023-08-20T20:26:28.967Z,4.85
2023-08-20T20:28:57.351Z,5.72
2023-08-20T20:31:26.658Z,5.88
2023-08-20T20:33:54.409Z,7.75
2023-08-20T20:36:22.087Z,7.03
2023-08-20T20:38:49.899Z,4.57
2023-08-20T20:41:17.878Z,5.38
2023-08-20T20:43:45.650Z,5.60
2023-08-20T20:46:13.357Z,4.03
2023-08-20T20:48:42.382Z,9.98
2023-08-20T20:51:10.054Z,8.27
2023-08-20T20:53:37.708Z,8.00
2023-08-20T20:56:05.735Z,4.53
2023-08-20T20:58:33.476Z,7.35
2023-08-20T21:01:01.244Z,7.20
2023-08-20T21:03:28.961Z,4.82
2023-08-20T21:05:57.958Z,4.85
2023-08-20T21:08:25.874Z,6.82
2023-08-20T21:10:53.534Z,8.57
2023-08-20T21:13:21.653Z,5.32
2023-08-20T21:15:49.319Z,5.63
2023-08-20T21:18:17.066Z,6.60
2023-08-20T21:20:44.793Z,5.22
2023-08-20T21:23:13.823Z,6.97
2023-08-20T21:25:41.943Z,5.63
2023-08-20T21:28:09.652Z,5.93
2023-08-20T21:30:37.323Z,4.72
2023-08-20T21:33:05.311Z,4.03
2023-08-20T21:35:32.981Z,5.55
2023-08-20T21:38:00.640Z,6.53
2023-08-20T21:40:29.815Z,4.13
2023-08-20T21:42:57.541Z,8.88
2023-08-20T21:45:25.201Z,6.68
2023-08-20T21:47:52.957Z,9.32
2023-08-20T21:50:20.662Z,5.03
2023-08-20T21:52:48.348Z,7.22
2023-08-20T21:55:16.345Z,9.25
2023-08-20T21:57:46.759Z,6.50
2023-08-20T22:00:16.599Z,5.05
2023-08-20T22:02:45.370Z,7.22
2023-08-20T22:05:14.349Z,7.22
2023-08-20T22:07:44.432Z,6.55
2023-08-20T22:10:12.874Z,8.38
2023-08-20T22:12:41.073Z,7.97
2023-08-20T22:15:11.813Z,5.10
2023-08-20T22:17:39.813Z,6.65
2023-08-20T22:20:11.068Z,8.18
2023-08-20T22:22:39.725Z,6.72
2023-08-20T22:25:08.782Z,10.15
2023-08-20T22:27:37.179Z,7.03
2023-08-20T22:30:05.854Z,8.60
2023-08-20T22:32:35.452Z,7.78
2023-08-20T22:35:03.465Z,6.07
2023-08-20T22:37:31.241Z,4.60
2023-08-20T22:39:58.906Z,7.25
2023-08-20T22:42:26.523Z,4.68
2023-08-20T22:44:54.189Z,6.97
2023-08-20T22:47:22.189Z,5.28
2023-08-20T22:49:51.440Z,6.78
2023-08-20T22:52:19.161Z,7.03
2023-08-20T22:54:46.824Z,7.55
2023-08-20T22:57:14.484Z,4.00
2023-08-20T22:59:42.197Z,6.72
2023-08-20T23:02:09.908Z,6.57
2023-08-20T23:04:37.659Z,7.88
2023-08-20T23:07:06.904Z,4.70
2023-08-20T23:09:34.555Z,6.78
2023-08-20T23:12:02.251Z,5.10
2023-08-20T23:14:29.967Z,9.15
2023-08-20T23:16:57.832Z,5.80
2023-08-20T23:19:26.882Z,7.55
2023-08-20T23:21:54.542Z,8.30
2023-08-20T23:24:23.640Z,6.30
2023-08-20T23:26:51.315Z,6.93
2023-08-20T23:29:18.980Z,8.30
2023-08-20T23:31:47.127Z,6.57
2023-08-20T23:34:14.814Z,6.30
2023-08-20T23:36:42.629Z,5.03
2023-08-20T23:39:10.284Z,5.70
2023-08-20T23:41:39.274Z,4.65
2023-08-20T23:44:06.918Z,5.07
2023-08-20T23:46:47.200Z,6.32
2023-08-20T23:49:15.791Z,9.70
2023-08-20T23:51:43.547Z,5.55
2023-08-20T23:54:11.249Z,5.97
2023-08-20T23:56:40.326Z,6.13
2023-08-20T23:59:08.208Z,4.40
